Time;durP1;ratioP1;P1;durP2;ratioP2;P2;SDS_P1;SDS_P2;PMS_P1;PMS_P2;Temp;Humidity;BMP_temperature;BMP_pressure;BME280_temperature;BME280_humidity;BME280_pressure;Samples;Min_cycle;Max_cycle;Signal;HPM_P1;HPM_P2
2023/06/08 00:02:28;;;;;;;7.87;7.07;;;20.90;99.90;;;21.28;nan;100438.38;5006722;28;20622;-69
2023/06/08 00:04:57;;;;;;;7.00;6.30;;;20.80;99.90;;;21.29;nan;100445.34;5008886;28;20620;-65
2023/06/08 00:07:24;;;;;;;7.73;6.80;;;20.80;99.90;;;21.25;nan;100444.06;5014515;28;20632;-69
2023/06/08 00:09:51;;;;;;;9.00;6.40;;;20.80;99.90;;;21.19;nan;100442.16;5028901;28;20620;-67
2023/06/08 00:12:18;;;;;;;5.40;4.90;;;20.70;99.90;;;21.15;nan;100446.97;5025820;28;20667;-66
2023/06/08 00:14:46;;;;;;;7.80;5.00;;;20.60;99.90;;;21.10;nan;100445.88;5010651;28;21191;-66
2023/06/08 00:17:13;;;;;;;5.80;4.63;;;20.60;99.90;;;21.06;nan;100441.94;5020946;28;20632;-66
2023/06/08 00:19:42;;;;;;;4.23;3.90;;;20.50;99.90;;;20.99;nan;100443.63;5009667;28;21405;-66
2023/06/08 00:22:12;;;;;;;9.20;5.77;;;20.50;99.90;;;20.94;nan;100436.22;5015354;28;21241;-68
2023/06/08 00:24:40;;;;;;;7.33;5.80;;;20.50;99.90;;;20.91;nan;100436.59;5021908;28;20624;-65
2023/06/08 00:27:08;;;;;;;8.40;6.53;;;20.40;99.90;;;20.90;nan;100432.28;5028703;28;20624;-66
2023/06/08 00:29:36;;;;;;;8.30;7.07;;;20.40;99.90;;;20.92;nan;100429.44;5029832;28;21493;-66
2023/06/08 00:32:03;;;;;;;8.93;6.80;;;20.40;99.90;;;20.90;nan;100432.28;5026950;28;20656;-67
2023/06/08 00:34:30;;;;;;;7.87;6.20;;;20.40;99.90;;;20.90;nan;100427.00;5023877;28;20624;-69
2023/06/08 00:36:58;;;;;;;7.10;5.27;;;20.40;99.90;;;20.89;nan;100422.72;5020824;28;21015;-65
2023/06/08 00:39:25;;;;;;;7.20;5.83;;;20.40;99.90;;;20.87;nan;100424.69;5031578;28;20620;-69
2023/06/08 00:41:52;;;;;;;6.10;4.43;;;20.40;99.90;;;20.84;nan;100422.41;5031399;28;20656;-66
2023/06/08 00:44:19;;;;;;;6.63;5.20;;;20.30;99.90;;;20.73;nan;100426.34;5023811;28;20612;-66
2023/06/08 00:46:49;;;;;;;6.00;5.40;;;20.30;99.90;;;20.66;nan;100421.91;5032059;28;20580;-66
2023/06/08 00:49:18;;;;;;;10.10;6.33;;;20.20;99.90;;;20.64;nan;100418.63;5022153;28;20654;-65
2023/06/08 00:51:45;;;;;;;8.60;7.10;;;20.10;99.90;;;20.63;nan;100420.47;5024070;28;20722;-65
2023/06/08 00:54:15;;;;;;;9.93;6.70;;;20.10;99.90;;;20.65;nan;100425.59;5023519;28;20652;-65
2023/06/08 00:56:48;;;;;;;6.30;5.50;;;20.20;99.90;;;20.63;nan;100419.66;5026558;28;20634;-65
2023/06/08 00:59:15;;;;;;;7.10;4.93;;;20.10;99.90;;;20.55;nan;100422.38;5012313;28;20963;-66
2023/06/08 01:01:42;;;;;;;7.60;6.43;;;20.10;99.90;;;20.50;nan;100420.25;5021664;28;20664;-66
2023/06/08 01:04:09;;;;;;;6.30;5.10;;;20.00;99.90;;;20.47;nan;100420.59;5033836;28;20613;-65
2023/06/08 01:06:44;;;;;;;8.37;6.00;;;20.00;99.90;;;20.45;nan;100421.78;5015737;28;20637;-65
2023/06/08 01:09:29;;;;;;;7.27;5.43;;;20.00;99.90;;;20.40;nan;100419.66;5041176;28;20643;-68
2023/06/08 01:12:24;;;;;;;5.60;4.83;;;19.90;99.90;;;20.35;nan;100415.91;5028824;28;20664;-66
2023/06/08 01:15:02;;;;;;;5.73;4.57;;;19.90;99.90;;;20.28;nan;100420.25;5032029;28;20612;-66
2023/06/08 01:17:40;;;;;;;5.90;5.27;;;19.80;99.90;;;20.21;nan;100424.63;5031613;28;20624;-66
2023/06/08 01:20:21;;;;;;;6.30;5.40;;;19.80;99.90;;;20.16;nan;100424.31;5022864;28;21043;-65
2023/06/08 01:22:57;;;;;;;6.60;5.90;;;19.70;99.90;;;20.09;nan;100419.72;5027154;28;20616;-68
2023/06/08 01:25:30;;;;;;;7.53;5.43;;;19.70;99.90;;;20.07;nan;100416.41;5032256;28;20619;-68
2023/06/08 01:28:15;;;;;;;7.37;5.97;;;19.70;99.90;;;20.05;nan;100422.88;5026634;28;20621;-64
2023/06/08 01:30:48;;;;;;;10.00;6.80;;;19.60;99.90;;;19.98;nan;100428.06;5023057;28;20676;-69
2023/06/08 01:33:26;;;;;;;10.07;6.70;;;19.50;99.90;;;19.96;nan;100423.94;5014685;28;20663;-65
2023/06/08 01:36:14;;;;;;;9.30;6.73;;;19.50;99.90;;;19.92;nan;100426.13;5026592;28;20625;-65
2023/06/08 01:39:05;;;;;;;9.73;7.00;;;19.50;99.90;;;19.92;nan;100428.78;5024516;28;20629;-65
2023/06/08 01:41:44;;;;;;;7.90;7.07;;;19.50;99.90;;;19.94;nan;100426.75;5021882;28;21032;-65
2023/06/08 01:44:16;;;;;;;8.17;6.57;;;19.50;99.90;;;19.96;nan;100423.94;5032057;28;20636;-65
2023/06/08 01:46:58;;;;;;;6.97;5.20;;;19.50;99.90;;;19.96;nan;100432.72;5014152;28;21538;-64
2023/06/08 01:49:30;;;;;;;8.60;6.20;;;19.50;99.90;;;19.92;nan;100428.78;5022608;28;20655;-66
2023/06/08 01:51:58;;;;;;;11.73;7.47;;;19.40;99.90;;;19.88;nan;100430.13;5013749;28;20679;-66
2023/06/08 01:54:25;;;;;;;7.10;6.37;;;19.40;99.90;;;19.89;nan;100420.34;5027907;28;21465;-66
2023/06/08 01:56:52;;;;;;;7.93;6.17;;;19.40;99.90;;;19.89;nan;100420.34;5031033;28;20991;-67
2023/06/08 01:59:19;;;;;;;9.53;7.40;;;19.40;99.90;;;19.91;nan;100413.88;5012847;28;20621;-66
2023/06/08 02:01:46;;;;;;;8.27;7.20;;;19.50;99.90;;;19.93;nan;100419.81;5010226;28;20657;-64
2023/06/08 02:04:13;;;;;;;7.97;6.93;;;19.40;99.90;;;19.96;nan;100411.53;5012220;28;20601;-66
2023/06/08 02:06:40;;;;;;;6.63;5.53;;;19.50;99.90;;;19.94;nan;100418.81;5013589;28;21157;-67
2023/06/08 02:09:07;;;;;;;7.13;5.73;;;19.50;99.90;;;19.93;nan;100425.09;5019245;28;20625;-65
2023/06/08 02:11:34;;;;;;;6.00;5.40;;;19.50;99.90;;;19.89;nan;100415.06;5009696;28;20665;-66
2023/06/08 02:14:03;;;;;;;6.67;5.93;;;19.40;99.90;;;19.82;nan;100414.94;5025249;28;20660;-66
2023/06/08 02:16:33;;;;;;;8.00;6.40;;;19.30;99.90;;;19.81;nan;100413.28;5031277;28;20613;-66
2023/06/08 02:19:01;;;;;;;6.63;5.67;;;19.30;99.90;;;19.77;nan;100411.97;5022749;28;20630;-65
2023/06/08 02:21:28;;;;;;;8.50;5.90;;;19.30;99.90;;;19.77;nan;100413.78;5011763;28;20649;-65
2023/06/08 02:23:55;;;;;;;7.40;5.73;;;19.30;99.90;;;19.81;nan;100409.78;5019229;28;20640;-65
2023/06/08 02:26:25;;;;;;;6.67;5.97;;;19.40;99.90;;;19.82;nan;100411.47;5011650;28;20645;-65
2023/06/08 02:28:53;;;;;;;6.70;5.97;;;19.30;99.90;;;19.83;nan;100411.28;5017786;28;20641;-66
2023/06/08 02:31:21;;;;;;;6.70;5.87;;;19.40;99.90;;;19.81;nan;100415.91;5030003;28;20652;-66
2023/06/08 02:33:50;;;;;;;6.40;5.33;;;19.30;99.90;;;19.78;nan;100413.63;5020784;28;20703;-65
2023/06/08 02:36:17;;;;;;;5.43;4.93;;;19.30;99.90;;;19.73;nan;100413.31;5011685;28;20624;-69
2023/06/08 02:38:44;;;;;;;5.40;4.83;;;19.30;99.90;;;19.70;nan;100416.31;5021545;28;20641;-68
2023/06/08 02:41:11;;;;;;;6.37;5.63;;;19.20;99.90;;;19.66;nan;100424.78;5024348;28;20668;-65
2023/06/08 02:43:38;;;;;;;6.60;5.33;;;19.20;99.90;;;19.62;nan;100416.34;5023715;28;21004;-64
2023/06/08 02:46:05;;;;;;;7.03;5.07;;;19.20;99.90;;;19.62;nan;100424.31;5023945;28;20628;-65
2023/06/08 02:48:32;;;;;;;8.40;5.80;;;19.10;99.90;;;19.60;nan;100418.34;5019823;28;20642;-65
2023/06/08 02:50:59;;;;;;;7.67;6.33;;;19.10;99.90;;;19.57;nan;100421.34;5023678;28;20669;-65
2023/06/08 02:53:26;;;;;;;7.77;6.60;;;19.10;99.90;;;19.55;nan;100420.69;5023790;28;20687;-66
2023/06/08 02:55:54;;;;;;;9.30;6.10;;;19.10;99.90;;;19.58;nan;100415.06;5019731;28;21020;-65
2023/06/08 02:58:23;;;;;;;5.87;5.30;;;19.10;99.90;;;19.60;nan;100415.72;5012638;28;21405;-68
2023/06/08 03:00:53;;;;;;;10.60;6.33;;;19.20;99.90;;;19.55;nan;100404.81;5016063;28;20693;-68
2023/06/08 03:03:33;;;;;;;8.50;6.50;;;19.10;99.90;;;19.55;nan;100410.09;5022246;28;20612;-66
2023/06/08 03:06:00;;;;;;;9.70;6.83;;;19.10;99.90;;;19.54;nan;100410.28;5019350;28;20626;-68
2023/06/08 03:08:28;;;;;;;7.67;5.90;;;19.10;99.90;;;19.49;nan;100405.50;5028013;28;20637;-66
2023/06/08 03:10:55;;;;;;;7.30;6.53;;;19.10;99.90;;;19.42;nan;100412.50;5024003;28;20657;-67
2023/06/08 03:13:22;;;;;;;14.60;5.40;;;19.00;99.90;;;19.37;nan;100414.84;5022812;28;20701;-67
2023/06/08 03:15:52;;;;;;;5.63;5.03;;;18.90;99.90;;;19.35;nan;100411.53;5022130;28;20651;-63
2023/06/08 03:18:19;;;;;;;11.10;5.10;;;18.90;99.90;;;19.28;nan;100408.72;5024189;28;21509;-65
2023/06/08 03:20:47;;;;;;;5.70;5.07;;;18.90;99.90;;;19.25;nan;100405.59;5011225;28;20668;-68
2023/06/08 03:23:15;;;;;;;8.70;5.80;;;18.80;99.90;;;19.23;nan;100407.56;5007610;28;20654;-67
2023/06/08 03:25:44;;;;;;;7.50;5.97;;;18.80;99.90;;;19.17;nan;100411.72;5009905;28;20624;-67
2023/06/08 03:28:11;;;;;;;7.70;6.37;;;18.80;99.90;;;19.16;nan;100411.91;5009674;28;20645;-66
2023/06/08 03:30:38;;;;;;;7.60;5.63;;;18.80;99.90;;;19.19;nan;100412.38;5018531;28;20664;-65
2023/06/08 03:33:06;;;;;;;6.83;5.47;;;18.80;99.90;;;19.16;nan;100404.81;5018454;28;20612;-66
2023/06/08 03:35:33;;;;;;;7.27;5.97;;;18.70;99.90;;;19.09;nan;100410.94;5028305;28;20633;-65
2023/06/08 03:38:00;;;;;;;10.10;7.47;;;18.70;99.90;;;19.08;nan;100404.00;5024483;28;20640;-66
2023/06/08 03:40:27;;;;;;;8.70;6.70;;;18.60;99.90;;;19.12;nan;100410.59;5012815;28;21017;-65
2023/06/08 03:42:54;;;;;;;8.00;5.90;;;18.70;99.90;;;19.11;nan;100415.06;5021877;28;20640;-64
2023/06/08 03:45:21;;;;;;;6.70;5.13;;;18.70;99.90;;;19.10;nan;100408.09;5028163;28;20643;-67
2023/06/08 03:47:48;;;;;;;7.27;5.17;;;18.60;99.90;;;19.08;nan;100417.22;5028459;28;20644;-65
2023/06/08 03:50:15;;;;;;;9.77;5.87;;;18.60;99.90;;;19.11;nan;100424.81;5019216;28;20624;-68
2023/06/08 03:52:43;;;;;;;7.00;5.67;;;18.60;99.90;;;19.15;nan;100421.66;5027596;28;20982;-66
2023/06/08 03:55:11;;;;;;;8.87;6.03;;;18.70;99.90;;;19.23;nan;100420.78;5024609;28;20664;-66
2023/06/08 03:57:38;;;;;;;6.17;5.40;;;18.80;99.90;;;19.32;nan;100428.53;5023904;28;20614;-64
2023/06/08 04:00:08;;;;;;;7.90;5.70;;;18.90;99.90;;;19.32;nan;100423.25;5026080;28;20722;-67
2023/06/08 04:02:35;;;;;;;6.57;5.87;;;18.90;99.90;;;19.33;nan;100424.09;5029342;28;21223;-66
2023/06/08 04:05:02;;;;;;;7.70;6.23;;;18.90;99.90;;;19.30;nan;100427.88;5027560;28;20636;-65
2023/06/08 04:07:29;;;;;;;8.40;6.33;;;18.90;99.90;;;19.43;nan;100437.13;5029097;28;20612;-68
2023/06/08 04:09:57;;;;;;;7.40;5.30;;;19.00;99.90;;;19.52;nan;100439.56;5027505;28;20656;-65
2023/06/08 04:12:24;;;;;;;6.13;5.03;;;19.10;99.90;;;19.63;nan;100433.06;5027710;28;20660;-66
2023/06/08 04:14:51;;;;;;;6.33;5.40;;;19.10;99.90;;;19.70;nan;100439.34;5020571;28;20663;-64
2023/06/08 04:17:18;;;;;;;9.33;5.80;;;19.30;99.90;;;19.84;nan;100436.78;5033329;28;20616;-67
2023/06/08 04:19:45;;;;;;;5.63;5.10;;;19.40;99.90;;;19.97;nan;100437.03;5029558;28;20636;-65
2023/06/08 04:22:12;;;;;;;6.40;5.47;;;19.50;99.90;;;20.13;nan;100434.25;5029872;28;20714;-68
2023/06/08 04:24:39;;;;;;;4.87;4.37;;;19.70;99.90;;;20.25;nan;100428.59;5032394;28;21277;-66
2023/06/08 04:27:07;;;;;;;7.80;6.70;;;19.80;99.90;;;20.36;nan;100431.63;5024736;28;20644;-66
2023/06/08 04:29:34;;;;;;;6.23;4.37;;;19.90;99.90;;;20.45;nan;100435.84;5045562;28;20640;-69
2023/06/08 04:32:01;;;;;;;4.20;3.77;;;20.00;99.90;;;20.52;nan;100433.31;5017339;28;20669;-67
2023/06/08 04:34:29;;;;;;;6.80;5.60;;;20.10;99.90;;;20.60;nan;100436.72;5031546;28;20670;-66
2023/06/08 04:36:56;;;;;;;4.00;3.60;;;20.10;99.90;;;20.76;nan;100427.81;5027455;28;20617;-65
2023/06/08 04:39:23;;;;;;;7.50;6.17;;;20.30;99.90;;;20.91;nan;100428.66;5015481;28;20633;-66
2023/06/08 04:41:50;;;;;;;6.30;5.10;;;20.40;99.90;;;21.05;nan;100435.81;5013971;28;20672;-68
2023/06/08 04:44:20;;;;;;;5.17;4.67;;;20.60;99.90;;;21.11;nan;100435.09;5011509;28;20640;-66
2023/06/08 04:46:47;;;;;;;8.20;6.63;;;20.70;99.90;;;21.23;nan;100432.81;5014982;28;21200;-65
2023/06/08 04:49:16;;;;;;;5.83;4.10;;;20.80;99.90;;;21.36;nan;100428.47;5021111;28;20700;-66
2023/06/08 04:51:46;;;;;;;4.20;3.80;;;20.90;99.90;;;21.48;nan;100435.00;5012791;28;20719;-67
2023/06/08 04:54:13;;;;;;;10.07;5.50;;;21.00;99.90;;;21.51;nan;100436.41;5027273;28;20669;-65
2023/06/08 04:56:41;;;;;;;7.43;6.50;;;21.10;99.90;;;21.66;nan;100433.78;5031720;28;20605;-68
2023/06/08 04:59:09;;;;;;;7.93;5.77;;;21.30;99.90;;;21.79;nan;100431.25;5029679;28;20645;-64
2023/06/08 05:01:36;;;;;;;6.07;5.47;;;21.40;99.90;;;21.87;nan;100429.31;5027711;28;21048;-65
2023/06/08 05:04:07;;;;;;;6.87;5.33;;;21.50;99.90;;;21.91;nan;100427.13;5032283;28;20685;-66
2023/06/08 05:06:35;;;;;;;8.07;6.30;;;21.50;99.90;;;22.12;nan;100438.59;5012261;28;20621;-66
2023/06/08 05:09:02;;;;;;;10.30;7.50;;;21.70;99.90;;;22.31;nan;100432.66;5024373;28;20663;-65
2023/06/08 05:11:29;;;;;;;9.27;6.50;;;21.90;99.90;;;22.56;nan;100435.72;5031420;28;20707;-66
2023/06/08 05:13:56;;;;;;;10.13;7.30;;;22.10;99.90;;;22.72;nan;100435.47;5015629;28;20665;-65
2023/06/08 05:16:23;;;;;;;8.23;7.30;;;22.20;99.90;;;22.82;nan;100445.78;5022206;28;20609;-68
2023/06/08 05:18:52;;;;;;;7.87;7.13;;;22.40;99.90;;;22.98;nan;100434.81;5030700;28;20603;-66
2023/06/08 05:21:19;;;;;;;8.60;7.10;;;22.50;99.90;;;23.14;nan;100442.50;5030481;28;20696;-65
2023/06/08 05:23:47;;;;;;;5.87;4.60;;;22.70;99.90;;;23.26;nan;100440.09;5022577;28;20631;-68
2023/06/08 05:26:14;;;;;;;7.90;7.10;;;22.80;99.90;;;23.46;nan;100443.75;5016522;28;20625;-68
2023/06/08 05:28:41;;;;;;;8.90;7.20;;;23.00;99.90;;;23.63;nan;100440.53;5017806;28;20637;-69
2023/06/08 05:31:08;;;;;;;5.60;5.10;;;23.10;99.90;;;23.84;nan;100439.59;5017336;28;20671;-66
2023/06/08 05:33:35;;;;;;;8.27;5.83;;;23.30;99.90;;;24.02;nan;100442.50;5021073;28;20621;-67
2023/06/08 05:36:04;;;;;;;4.87;4.47;;;23.50;99.90;;;24.29;nan;100449.56;5019679;28;20699;-65
2023/06/08 05:38:31;;;;;;;7.50;6.80;;;23.70;99.90;;;24.49;nan;100444.25;5030572;28;20627;-67
2023/06/08 05:40:58;;;;;;;6.50;5.87;;;24.00;99.90;;;24.68;nan;100438.09;5023257;28;20667;-66
2023/06/08 05:43:25;;;;;;;11.07;4.20;;;24.10;99.90;;;24.82;nan;100446.91;5028474;28;20998;-68
2023/06/08 05:45:52;;;;;;;4.43;4.00;;;24.30;99.90;;;24.97;nan;100436.84;5020054;28;20620;-66
2023/06/08 05:48:19;;;;;;;8.93;6.77;;;24.50;99.90;;;25.19;nan;100441.72;5012198;28;20633;-66
2023/06/08 05:50:46;;;;;;;8.67;7.07;;;24.70;99.90;;;25.39;nan;100447.84;5020502;28;21232;-66
2023/06/08 05:53:13;;;;;;;8.27;6.63;;;24.90;99.60;;;25.60;nan;100448.63;5003750;28;20671;-67
2023/06/08 05:55:41;;;;;;;5.40;4.90;;;25.10;99.30;;;25.76;nan;100448.13;5011528;28;20660;-67
2023/06/08 05:58:09;;;;;;;6.00;5.33;;;25.30;98.90;;;25.97;nan;100455.81;5009203;28;21512;-67
2023/06/08 06:00:36;;;;;;;6.80;5.47;;;25.40;98.70;;;26.13;nan;100448.16;5011115;28;20662;-66
2023/06/08 06:03:03;;;;;;;7.03;5.80;;;25.60;98.10;;;26.32;nan;100453.59;5027048;28;20640;-66
2023/06/08 06:05:31;;;;;;;8.10;7.30;;;25.80;97.90;;;26.47;nan;100446.06;5020973;28;20655;-66
2023/06/08 06:07:58;;;;;;;6.27;5.70;;;25.90;97.50;;;26.81;nan;100453.66;5025647;28;20675;-65
2023/06/08 06:10:25;;;;;;;5.63;5.13;;;26.20;97.00;;;27.22;nan;100456.50;5019752;28;20661;-67
2023/06/08 06:12:52;;;;;;;6.73;5.90;;;26.60;96.50;;;27.58;nan;100459.22;5012933;28;21240;-66
2023/06/08 06:15:19;;;;;;;10.50;7.00;;;26.90;95.90;;;27.89;nan;100450.16;5015785;28;21208;-66
2023/06/08 06:17:46;;;;;;;7.50;6.50;;;27.30;94.80;;;28.14;nan;100450.88;5030365;28;21173;-69
2023/06/08 06:20:15;;;;;;;7.30;6.60;;;27.60;94.20;;;28.35;nan;100452.19;5022269;28;20629;-67
2023/06/08 06:22:44;;;;;;;7.67;5.50;;;27.70;93.90;;;28.79;nan;100446.31;5026255;28;20687;-67
2023/06/08 06:25:11;;;;;;;8.53;7.50;;;28.10;93.00;;;29.00;nan;100451.13;5017202;28;20637;-68
2023/06/08 06:27:38;;;;;;;5.43;4.93;;;28.40;92.30;;;29.42;nan;100459.84;5030545;28;20605;-67
2023/06/08 06:30:15;;;;;;;6.93;5.77;;;28.80;91.80;;;29.83;nan;100454.28;5020339;28;20644;-68
2023/06/08 06:32:44;;;;;;;7.20;6.43;;;29.20;90.70;;;30.32;nan;100449.25;5020502;28;20615;-67
2023/06/08 06:35:11;;;;;;;5.10;4.70;;;29.70;89.90;;;30.72;nan;100459.84;5016969;28;20669;-66
2023/06/08 06:37:38;;;;;;;7.50;5.73;;;30.10;87.70;;;30.89;nan;100458.00;5023801;28;20608;-70
2023/06/08 06:40:06;;;;;;;8.00;5.40;;;30.40;85.30;;;31.19;nan;100461.97;5021468;28;20645;-64
2023/06/08 06:42:37;;;;;;;9.03;7.70;;;30.70;83.90;;;31.47;nan;100462.88;5019918;28;20647;-66
2023/06/08 06:45:05;;;;;;;5.90;5.40;;;31.00;82.30;;;32.01;nan;100472.69;5024441;28;20991;-68
2023/06/08 06:47:34;;;;;;;6.83;5.83;;;31.40;80.50;;;32.59;nan;100482.72;5019647;28;21210;-67
2023/06/08 06:50:01;;;;;;;5.53;5.10;;;32.00;79.10;;;33.06;nan;100488.22;5013049;28;20640;-70
2023/06/08 06:52:35;;;;;;;5.90;5.40;;;33.00;73.70;;;33.46;nan;100488.44;5015105;28;20728;-66
2023/06/08 06:55:03;;;;;;;4.97;4.57;;;33.00;74.30;;;33.93;nan;100496.47;5029229;28;20669;-66
2023/06/08 06:57:32;;;;;;;7.17;6.57;;;33.40;72.30;;;34.38;nan;100499.31;5015745;28;20705;-66
2023/06/08 07:00:07;;;;;;;6.40;5.80;;;33.90;70.60;;;34.96;nan;100498.78;5016483;28;20626;-67
2023/06/08 07:02:38;;;;;;;4.73;4.43;;;34.50;68.60;;;35.29;nan;100497.38;5013145;28;20999;-66
2023/06/08 07:05:07;;;;;;;5.53;5.10;;;34.90;67.00;;;35.60;nan;100498.94;5028698;28;20631;-66
2023/06/08 07:07:35;;;;;;;7.33;6.63;;;35.20;65.60;;;35.82;nan;100501.28;5023787;28;20652;-68
2023/06/08 07:10:03;;;;;;;6.27;5.83;;;35.50;64.20;;;36.15;nan;100492.41;5030090;28;20630;-68
2023/06/08 07:12:30;;;;;;;6.33;5.83;;;35.90;63.10;;;36.82;nan;100493.53;5028034;28;20640;-66
2023/06/08 07:14:57;;;;;;;6.77;6.07;;;36.20;62.20;;;37.29;nan;100499.06;5028871;28;20664;-68
2023/06/08 07:17:24;;;;;;;6.50;5.90;;;36.70;61.00;;;37.74;nan;100500.44;5025038;28;20635;-65
2023/06/08 07:19:52;;;;;;;5.97;5.20;;;37.20;59.90;;;38.18;nan;100503.63;5006852;28;20636;-66
2023/06/08 07:22:20;;;;;;;5.13;4.67;;;37.60;59.00;;;38.66;nan;100506.97;5014581;28;20657;-67
2023/06/08 07:24:53;;;;;;;6.67;4.50;;;38.10;57.60;;;39.07;nan;100504.34;5021109;28;20629;-66
2023/06/08 07:27:40;;;;;;;5.10;4.70;;;38.50;56.50;;;39.60;nan;100504.72;5012796;28;20668;-68
2023/06/08 07:30:08;;;;;;;5.33;4.90;;;39.00;55.40;;;39.91;nan;100502.97;5020607;28;20647;-68
2023/06/08 07:32:37;;;;;;;6.30;5.77;;;39.30;54.60;;;40.17;nan;100506.72;5022714;28;20620;-69
2023/06/08 07:35:05;;;;;;;6.10;5.70;;;39.60;53.80;;;40.41;nan;100515.47;5017753;28;20680;-66
2023/06/08 07:37:39;;;;;;;5.63;5.23;;;39.90;53.90;;;40.72;nan;100505.38;5021449;28;20608;-68
2023/06/08 07:40:07;;;;;;;6.10;5.67;;;40.20;53.00;;;40.48;nan;100513.13;5024638;28;20612;-70
2023/06/08 07:42:35;;;;;;;4.43;4.13;;;40.10;51.50;;;40.55;nan;100509.97;5027766;28;20657;-68
2023/06/08 07:45:02;;;;;;;4.97;4.67;;;40.00;51.70;;;39.70;nan;100499.84;5028564;28;20994;-68
2023/06/08 07:47:29;;;;;;;6.10;5.17;;;39.50;51.80;;;39.69;nan;100503.69;5028814;28;20624;-70
2023/06/08 07:49:56;;;;;;;5.80;5.20;;;39.40;52.00;;;38.60;nan;100498.06;5020320;28;20696;-67
2023/06/08 07:52:23;;;;;;;4.73;4.37;;;38.60;52.40;;;38.47;nan;100487.94;5028697;28;20664;-68
2023/06/08 07:54:50;;;;;;;5.77;5.37;;;38.40;52.40;;;38.54;nan;100488.38;5021805;28;20672;-67
2023/06/08 07:57:18;;;;;;;5.90;5.40;;;38.20;52.80;;;39.16;nan;100489.75;5023741;28;20632;-69
2023/06/08 07:59:45;;;;;;;4.80;4.50;;;38.70;52.70;;;39.79;nan;100486.28;5019818;28;20644;-69
2023/06/08 08:02:12;;;;;;;4.77;4.47;;;39.30;51.90;;;39.89;nan;100486.84;5019461;28;20793;-68
2023/06/08 08:04:40;;;;;;;5.80;5.30;;;39.70;50.70;;;39.85;nan;100485.03;5026478;28;20702;-68
2023/06/08 08:07:10;;;;;;;5.30;4.90;;;39.60;50.50;;;39.95;nan;100484.81;5017410;28;20629;-70
2023/06/08 08:09:41;;;;;;;5.00;4.70;;;39.60;50.70;;;40.00;nan;100482.00;5021491;28;20653;-69
2023/06/08 08:12:10;;;;;;;5.00;4.60;;;39.60;50.50;;;39.37;nan;100485.50;5015985;28;20671;-67
2023/06/08 08:14:37;;;;;;;4.50;4.10;;;39.20;50.40;;;39.28;nan;100476.41;5037518;28;20687;-67
2023/06/08 08:17:05;;;;;;;6.23;5.80;;;39.10;50.60;;;39.34;nan;100474.38;5023396;28;20625;-69
2023/06/08 08:19:32;;;;;;;5.20;4.90;;;39.00;50.80;;;40.12;nan;100476.81;5011990;28;20642;-67
2023/06/08 08:21:59;;;;;;;4.80;4.47;;;39.60;50.70;;;40.62;nan;100472.81;5020839;28;20690;-69
2023/06/08 08:24:26;;;;;;;4.80;4.50;;;40.30;49.90;;;39.09;nan;100461.22;5016516;28;20621;-72
2023/06/08 08:26:57;;;;;;;5.30;4.90;;;39.00;50.00;;;37.70;nan;100464.81;5019038;28;20648;-69
2023/06/08 08:29:24;;;;;;;5.20;4.80;;;37.60;51.50;;;37.61;nan;100457.59;5021525;28;20632;-68
2023/06/08 08:31:51;;;;;;;5.13;4.70;;;37.30;52.50;;;37.72;nan;100459.06;5022219;28;20668;-68
2023/06/08 08:34:18;;;;;;;5.10;4.60;;;37.40;52.10;;;37.97;nan;100456.81;5014186;28;20628;-71
2023/06/08 08:36:45;;;;;;;6.23;5.73;;;37.60;52.00;;;39.06;nan;100462.63;5018032;28;21259;-71
2023/06/08 08:39:14;;;;;;;6.70;6.20;;;38.60;51.20;;;39.95;nan;100458.31;5016049;28;20613;-68
2023/06/08 08:41:43;;;;;;;5.90;5.50;;;39.60;50.60;;;41.05;nan;100461.31;5020052;28;20671;-67
2023/06/08 08:44:17;;;;;;;6.90;6.30;;;40.60;49.40;;;41.90;nan;100456.06;5016596;28;20644;-71
2023/06/08 08:46:48;;;;;;;7.13;6.23;;;41.50;48.30;;;42.21;nan;100458.66;5033717;28;20624;-68
2023/06/08 08:49:17;;;;;;;5.77;5.40;;;42.10;47.40;;;42.69;nan;100458.41;5008021;28;20659;-69
2023/06/08 08:51:51;;;;;;;6.30;5.90;;;42.60;46.90;;;43.06;nan;100465.91;5027143;28;20668;-71
2023/06/08 08:54:25;;;;;;;5.30;5.00;;;43.00;46.00;;;43.48;nan;100453.06;5021699;28;20701;-72
2023/06/08 08:56:55;;;;;;;4.87;4.57;;;43.40;45.60;;;44.08;nan;100458.97;5014915;28;20617;-68
2023/06/08 08:59:23;;;;;;;5.80;5.47;;;43.60;45.40;;;44.33;nan;100459.84;5021309;28;20615;-69
2023/06/08 09:01:50;;;;;;;5.90;5.50;;;43.90;44.90;;;44.31;nan;100451.13;5018613;28;20648;-71
2023/06/08 09:04:17;;;;;;;5.30;5.00;;;44.10;44.60;;;44.52;nan;100449.16;5013332;28;20997;-69
2023/06/08 09:06:48;;;;;;;4.97;4.73;;;44.40;45.00;;;44.85;nan;100451.88;5010977;28;20632;-71
2023/06/08 09:09:16;;;;;;;6.10;5.70;;;44.70;44.10;;;44.95;nan;100443.97;5024519;28;20628;-69
2023/06/08 09:12:02;;;;;;;6.07;5.77;;;45.00;43.90;;;44.71;nan;100441.16;5032183;28;21056;-69
2023/06/08 09:14:30;;;;;;;6.30;6.00;;;44.90;43.70;;;45.20;nan;100431.81;5030221;28;20646;-69
2023/06/08 09:17:01;;;;;;;5.97;5.57;;;45.10;43.50;;;44.86;nan;100447.97;5030918;28;21215;-66
2023/06/08 09:19:29;;;;;;;7.20;6.80;;;44.90;43.20;;;45.04;nan;100438.34;5024381;28;21108;-68
2023/06/08 09:21:56;;;;;;;6.83;6.40;;;45.10;43.30;;;45.36;nan;100442.94;5013426;28;21240;-72
2023/06/08 09:24:23;;;;;;;7.70;7.30;;;45.30;43.90;;;45.42;nan;100436.03;5029802;28;20627;-70
2023/06/08 09:26:56;;;;;;;7.40;7.00;;;45.50;42.80;;;45.66;nan;100444.28;5009537;28;20632;-70
2023/06/08 09:29:40;;;;;;;6.57;6.10;;;45.70;42.50;;;43.92;nan;100433.19;5012625;28;20648;-69
2023/06/08 09:32:12;;;;;;;5.70;5.33;;;44.80;42.60;;;43.75;nan;100425.91;5029008;28;21821;-70
2023/06/08 09:34:53;;;;;;;5.77;5.33;;;44.30;42.90;;;42.18;nan;100415.44;5032668;28;20592;-69
2023/06/08 09:37:26;;;;;;;5.10;4.70;;;43.10;43.30;;;42.19;nan;100417.84;5015686;28;20615;-64
2023/06/08 09:39:54;;;;;;;6.17;5.77;;;42.70;43.70;;;43.00;nan;100409.59;5024555;28;20608;-71
2023/06/08 09:42:22;;;;;;;10.50;9.70;;;42.80;43.70;;;43.57;nan;100410.69;5015172;28;20662;-67
2023/06/08 09:45:13;;;;;;;9.07;8.27;;;43.50;43.60;;;44.29;nan;100414.91;5021263;28;20628;-69
2023/06/08 09:47:42;;;;;;;7.80;7.30;;;44.10;43.20;;;44.54;nan;100409.16;5020958;28;21235;-68
2023/06/08 09:50:10;;;;;;;8.47;7.87;;;44.30;42.80;;;44.54;nan;100419.34;5011158;28;20613;-68
2023/06/08 09:52:38;;;;;;;6.40;6.00;;;44.40;42.70;;;44.47;nan;100410.88;5014860;28;21202;-68
2023/06/08 09:55:06;;;;;;;6.53;6.07;;;44.30;42.70;;;44.25;nan;100406.56;5021914;28;20656;-69
2023/06/08 09:57:36;;;;;;;6.60;6.20;;;44.10;42.60;;;44.30;nan;100408.28;5017807;28;21223;-66
2023/06/08 10:00:17;;;;;;;5.30;5.00;;;44.10;42.60;;;43.11;nan;100400.63;5026829;28;20640;-67
2023/06/08 10:03:14;;;;;;;7.23;6.73;;;43.30;43.10;;;42.39;nan;100408.13;5018788;28;20630;-68
2023/06/08 10:05:45;;;;;;;5.57;5.07;;;42.30;43.50;;;41.09;nan;100393.88;5012054;28;20625;-72
2023/06/08 10:08:19;;;;;;;7.00;6.50;;;41.00;44.40;;;40.26;nan;100396.34;5020874;28;20641;-68
2023/06/08 10:10:47;;;;;;;7.70;7.00;;;39.90;45.90;;;39.77;nan;100380.06;5038972;28;20660;-71
2023/06/08 10:13:15;;;;;;;4.50;4.07;;;39.20;46.60;;;39.29;nan;100384.44;5016239;28;20621;-71
2023/06/08 10:15:43;;;;;;;5.67;5.20;;;38.70;46.20;;;38.18;nan;100377.50;5034919;28;20669;-69
2023/06/08 10:18:11;;;;;;;7.10;6.43;;;37.80;48.00;;;37.57;nan;100378.41;5018555;28;20620;-72
2023/06/08 10:20:39;;;;;;;6.20;5.60;;;37.00;48.30;;;36.61;nan;100372.50;5020465;28;20679;-67
2023/06/08 10:23:07;;;;;;;7.60;6.80;;;36.20;48.80;;;36.00;nan;100362.16;5029981;28;20643;-69
2023/06/08 10:25:35;;;;;;;5.83;5.33;;;35.50;49.80;;;35.74;nan;100368.84;5020992;28;20638;-69
2023/06/08 10:28:09;;;;;;;7.70;6.07;;;35.20;50.20;;;35.42;nan;100369.28;5027542;28;20644;-70
2023/06/08 10:30:41;;;;;;;4.03;3.67;;;34.80;50.30;;;35.31;nan;100361.47;5025750;28;20668;-68
2023/06/08 10:33:16;;;;;;;6.20;5.60;;;34.60;50.40;;;34.81;nan;100363.28;5024565;28;20640;-68
2023/06/08 10:36:02;;;;;;;7.67;6.93;;;34.20;51.30;;;34.43;nan;100363.88;5030354;28;20653;-69